Time;durP1;ratioP1;P1;durP2;ratioP2;P2;SDS_P1;SDS_P2;PMS_P1;PMS_P2;Temp;Humidity;BMP_temperature;BMP_pressure;BME280_temperature;BME280_humidity;BME280_pressure;Samples;Min_cycle;Max_cycle;Signal;HPM_P1;HPM_P2
2023/01/09 00:01:35;;;;;;;37.20;22.03;;;;;;;4.77;85.80;95162.03;5054362;28;20462;-87
2023/01/09 00:04:02;;;;;;;36.83;20.80;;;;;;;4.80;86.42;95166.22;5053643;28;20962;-85
2023/01/09 00:06:29;;;;;;;36.83;24.03;;;;;;;4.78;85.96;95161.13;5054407;28;20457;-87
2023/01/09 00:08:56;;;;;;;42.45;25.00;;;;;;;4.76;85.92;95159.53;5054356;28;20862;-87
2023/01/09 00:11:23;;;;;;;32.90;23.17;;;;;;;4.62;86.23;95152.50;5054077;28;20457;-88
2023/01/09 00:13:54;;;;;;;34.30;22.07;;;;;;;4.61;86.29;95156.03;5053962;28;20433;-87
2023/01/09 00:16:21;;;;;;;34.60;23.07;;;;;;;4.55;86.35;95161.59;5054122;28;20445;-87
2023/01/09 00:18:48;;;;;;;26.03;18.73;;;;;;;4.47;86.98;95159.44;5054477;28;20445;-87
2023/01/09 00:21:15;;;;;;;33.43;20.60;;;;;;;4.32;86.78;95162.88;5054035;28;20433;-87
2023/01/09 00:23:42;;;;;;;37.47;19.90;;;;;;;4.22;87.14;95164.31;5054100;28;20812;-87
2023/01/09 00:26:11;;;;;;;31.60;20.07;;;;;;;4.21;87.80;95153.09;5053982;28;20445;-87
2023/01/09 00:28:38;;;;;;;33.80;20.80;;;;;;;4.24;88.29;95155.53;5054125;28;20799;-87
2023/01/09 00:31:08;;;;;;;27.80;19.30;;;;;;;4.29;88.26;95153.50;5053657;28;20856;-87
2023/01/09 00:33:38;;;;;;;27.97;17.63;;;;;;;4.27;87.90;95149.31;5054084;28;20441;-87
2023/01/09 00:36:06;;;;;;;24.57;17.60;;;;;;;4.22;87.49;95148.75;5054223;28;20807;-87
2023/01/09 00:38:33;;;;;;;32.10;21.07;;;;;;;4.14;85.72;95149.19;5053911;28;20773;-87
2023/01/09 00:41:02;;;;;;;33.33;21.10;;;;;;;4.04;86.33;95154.03;5054266;28;20499;-87
2023/01/09 00:43:33;;;;;;;26.63;18.30;;;;;;;4.01;85.48;95149.00;5054112;28;20484;-87
2023/01/09 00:46:03;;;;;;;29.20;21.30;;;;;;;4.05;85.90;95157.50;5052815;28;20424;-87
2023/01/09 00:48:33;;;;;;;35.10;21.73;;;;;;;4.09;85.68;95151.19;5035239;28;20203;-87
2023/01/09 00:51:00;;;;;;;29.27;19.77;;;;;;;4.02;85.04;95145.47;5053501;28;20500;-87
2023/01/09 00:53:31;;;;;;;29.63;19.13;;;;;;;4.00;85.85;95146.50;5053929;28;20476;-87
2023/01/09 00:56:00;;;;;;;46.63;25.30;;;;;;;3.98;85.99;95156.13;5053552;28;20445;-87
2023/01/09 00:58:27;;;;;;;37.47;23.27;;;;;;;3.92;86.06;95156.47;5054252;28;20446;-87
2023/01/09 01:00:54;;;;;;;41.90;25.40;;;;;;;3.83;86.24;95154.38;5053633;28;20997;-87
2023/01/09 01:03:20;;;;;;;40.27;27.10;;;;;;;3.83;86.44;95152.63;5054103;28;20456;-87
2023/01/09 01:08:33;;;;;;;41.43;26.80;;;;;;;3.78;87.05;95159.00;5053926;28;20459;-87
2023/01/09 01:11:05;;;;;;;35.90;23.00;;;;;;;3.74;86.51;95156.53;5053679;28;20484;-88
2023/01/09 01:13:32;;;;;;;42.10;22.97;;;;;;;3.71;87.50;95154.09;5053758;28;20433;-87
2023/01/09 01:15:58;;;;;;;34.70;22.50;;;;;;;3.73;88.08;95157.44;5056083;28;20964;-87
2023/01/09 01:18:25;;;;;;;35.23;22.50;;;;;;;3.71;87.76;95148.91;5057191;28;20453;-87
2023/01/09 01:20:54;;;;;;;39.33;23.40;;;;;;;3.74;87.56;95146.16;5057435;28;20800;-87
2023/01/09 01:23:20;;;;;;;31.60;20.80;;;;;;;3.76;87.44;95151.28;5057235;28;20873;-87
2023/01/09 01:25:48;;;;;;;33.30;21.23;;;;;;;3.78;87.77;95141.66;5057015;28;21005;-86
2023/01/09 01:28:15;;;;;;;29.50;19.60;;;;;;;3.80;86.72;95126.84;5057255;28;20532;-87
2023/01/09 01:30:43;;;;;;;29.87;19.03;;;;;;;3.75;87.04;95128.81;5056813;28;20477;-87
2023/01/09 01:33:10;;;;;;;29.87;17.77;;;;;;;3.73;86.13;95122.88;5057530;28;20944;-87
2023/01/09 01:35:38;;;;;;;29.63;19.13;;;;;;;3.76;86.60;95124.47;5057579;28;20951;-87
2023/01/09 01:38:06;;;;;;;29.67;19.60;;;;;;;3.82;86.37;95126.75;5057076;28;20836;-86
2023/01/09 01:40:33;;;;;;;27.43;18.77;;;;;;;3.78;85.79;95130.44;5069450;28;20507;-87
2023/01/09 01:43:00;;;;;;;23.80;17.63;;;;;;;3.75;85.37;95110.66;5069509;28;20467;-86
2023/01/09 01:45:28;;;;;;;31.63;19.73;;;;;;;3.72;85.43;95129.81;5059098;28;20438;-87
2023/01/09 01:47:59;;;;;;;34.80;18.87;;;;;;;3.73;85.63;95121.13;5056432;28;20444;-86
2023/01/09 01:50:32;;;;;;;28.27;19.83;;;;;;;3.71;86.00;95116.94;5056675;28;20484;-86
2023/01/09 01:53:06;;;;;;;28.37;16.80;;;;;;;3.66;86.67;95114.59;5056380;28;20481;-86
2023/01/09 01:55:38;;;;;;;29.50;16.93;;;;;;;3.68;87.05;95107.56;5056347;28;20449;-86
2023/01/09 01:58:09;;;;;;;27.53;18.43;;;;;;;3.67;87.06;95094.66;5056401;28;20491;-86
2023/01/09 02:00:40;;;;;;;24.63;18.53;;;;;;;3.67;87.01;95094.66;5056042;28;20445;-87
2023/01/09 02:03:08;;;;;;;32.43;19.93;;;;;;;3.66;86.84;95087.81;5056254;28;20928;-86
2023/01/09 02:05:38;;;;;;;27.83;18.07;;;;;;;3.62;86.72;95089.75;5055800;28;20503;-86
2023/01/09 02:08:05;;;;;;;21.83;16.50;;;;;;;3.63;87.79;95090.56;5055782;28;20437;-86
2023/01/09 02:10:33;;;;;;;21.80;14.47;;;;;;;3.67;88.08;95085.13;5056032;28;20522;-87
2023/01/09 02:13:03;;;;;;;22.10;15.17;;;;;;;3.71;88.48;95093.59;5055849;28;20958;-87
2023/01/09 02:15:42;;;;;;;21.00;15.07;;;;;;;3.72;87.82;95080.53;5056066;28;20449;-86
2023/01/09 02:18:31;;;;;;;16.20;12.90;;;;;;;3.72;88.37;95071.91;5056058;28;20449;-86
2023/01/09 02:21:02;;;;;;;18.70;14.23;;;;;;;3.79;88.22;95069.81;5055988;28;20445;-86
2023/01/09 02:24:18;;;;;;;;;;;;;;;;;;;;;
2023/01/09 02:27:27;;;;;;;20.93;14.57;;;;;;;3.92;88.20;95068.22;5020573;28;20426;-86
2023/01/09 02:30:25;;;;;;;23.13;15.00;;;;;;;3.93;87.43;95064.69;5055668;28;20511;-86
2023/01/09 02:32:59;;;;;;;37.20;15.97;;;;;;;3.95;86.90;95062.84;5055851;28;20540;-86
2023/01/09 02:35:37;;;;;;;21.80;15.30;;;;;;;3.97;87.42;95063.59;5055472;28;20441;-87
2023/01/09 02:38:15;;;;;;;20.00;15.10;;;;;;;3.97;87.47;95067.03;5055989;28;20455;-87
2023/01/09 02:40:46;;;;;;;20.27;15.30;;;;;;;3.98;86.79;95068.69;5055250;28;20948;-87
2023/01/09 02:43:14;;;;;;;22.63;14.97;;;;;;;3.97;86.66;95061.00;5055912;28;20441;-86
2023/01/09 02:45:43;;;;;;;23.20;15.50;;;;;;;3.94;86.09;95062.00;5055448;28;20798;-86
2023/01/09 02:48:11;;;;;;;24.10;15.70;;;;;;;3.87;85.93;95054.66;5055293;28;20500;-86
2023/01/09 02:50:46;;;;;;;24.87;17.97;;;;;;;3.89;86.64;95064.03;5055488;28;20490;-87
2023/01/09 02:53:53;;;;;;;24.33;15.17;;;;;;;3.89;86.09;95065.78;5055498;28;20480;-87
2023/01/09 02:56:33;;;;;;;25.60;15.80;;;;;;;3.87;85.06;95062.44;5054821;28;20495;-87
2023/01/09 03:05:57;;;;;;;25.07;16.10;;;;;;;3.78;86.47;95073.34;5054760;28;20439;-86
2023/01/09 03:08:31;;;;;;;25.37;18.40;;;;;;;3.75;87.03;95061.34;5055239;28;20544;-87
2023/01/09 03:11:01;;;;;;;28.13;18.30;;;;;;;3.73;87.31;95063.19;5054592;28;20477;-86
2023/01/09 03:13:31;;;;;;;25.77;17.00;;;;;;;3.70;87.19;95069.38;5054675;28;20429;-87
2023/01/09 03:16:01;;;;;;;23.67;15.80;;;;;;;3.69;88.29;95062.53;5054708;28;20958;-86
2023/01/09 03:18:33;;;;;;;24.27;14.87;;;;;;;3.68;88.74;95054.81;5054527;28;20445;-85
2023/01/09 03:21:02;;;;;;;23.83;16.63;;;;;;;3.71;88.99;95052.06;5054940;28;20453;-86
2023/01/09 03:23:45;;;;;;;19.17;14.07;;;;;;;3.69;88.50;95057.34;5054405;28;20449;-86
2023/01/09 03:26:12;;;;;;;21.37;15.20;;;;;;;3.72;87.87;95059.75;5054321;28;20986;-87
2023/01/09 03:28:39;;;;;;;21.73;13.97;;;;;;;3.72;87.23;95074.50;5054731;28;20812;-86
2023/01/09 03:31:06;;;;;;;24.07;14.83;;;;;;;3.77;86.78;95061.28;5054416;28;20477;-87
2023/01/09 03:33:33;;;;;;;22.63;15.00;;;;;;;3.77;87.36;95063.88;5054814;28;20426;-87
2023/01/09 03:36:01;;;;;;;28.90;16.17;;;;;;;3.76;86.75;95062.19;5054630;28;20456;-87
2023/01/09 03:38:28;;;;;;;21.80;15.20;;;;;;;3.77;86.90;95058.69;5054295;28;20943;-87
2023/01/09 03:40:55;;;;;;;24.83;15.07;;;;;;;3.74;86.60;95063.09;5054570;28;20453;-86
2023/01/09 03:43:22;;;;;;;19.80;15.00;;;;;;;3.67;87.01;95066.13;5054287;28;20511;-86
2023/01/09 03:45:49;;;;;;;21.47;13.10;;;;;;;3.66;86.41;95070.47;5054401;28;20453;-87
2023/01/09 03:48:15;;;;;;;26.57;15.00;;;;;;;3.64;86.51;95064.53;5054067;28;20863;-86
2023/01/09 03:50:44;;;;;;;24.37;14.50;;;;;;;3.49;87.16;95056.78;5054607;28;20476;-87
2023/01/09 03:53:13;;;;;;;25.20;14.77;;;;;;;3.49;87.10;95068.00;5054328;28;20475;-87
2023/01/09 03:55:40;;;;;;;20.17;13.87;;;;;;;3.49;86.61;95080.13;5054500;28;20776;-87
2023/01/09 03:58:07;;;;;;;23.37;14.80;;;;;;;3.38;85.86;95075.50;5054424;28;20418;-87
2023/01/09 04:00:33;;;;;;;24.77;14.37;;;;;;;3.21;86.68;95066.03;5054404;28;20460;-87
2023/01/09 04:03:00;;;;;;;19.50;14.27;;;;;;;3.20;87.37;95066.97;5054004;28;20450;-86
2023/01/09 04:05:27;;;;;;;25.13;16.50;;;;;;;3.14;87.74;95064.66;5054201;28;20943;-86
2023/01/09 04:07:54;;;;;;;27.00;15.40;;;;;;;3.13;88.49;95073.38;5054480;28;20457;-86
2023/01/09 04:10:22;;;;;;;23.00;17.17;;;;;;;3.10;87.23;95069.19;5053894;28;20453;-87
2023/01/09 04:12:49;;;;;;;28.60;16.07;;;;;;;3.10;87.32;95076.97;5054332;28;20461;-87
2023/01/09 04:15:16;;;;;;;28.13;18.00;;;;;;;3.08;86.67;95077.97;5054077;28;20441;-86
2023/01/09 04:17:43;;;;;;;26.73;18.40;;;;;;;3.05;86.42;95065.16;5054065;28;20530;-86
2023/01/09 04:20:11;;;;;;;33.00;22.10;;;;;;;2.97;86.25;95069.94;5054026;28;20789;-87
2023/01/09 04:22:38;;;;;;;30.43;20.87;;;;;;;2.96;86.55;95066.50;5054324;28;20445;-87
2023/01/09 04:25:06;;;;;;;31.27;21.03;;;;;;;2.92;86.36;95065.00;5053887;28;20445;-87
2023/01/09 04:27:34;;;;;;;35.73;24.00;;;;;;;2.91;85.98;95052.94;5054161;28;20464;-87
2023/01/09 04:30:01;;;;;;;35.73;23.70;;;;;;;2.93;85.71;95053.69;5054482;28;20449;-87
2023/01/09 04:32:28;;;;;;;27.97;20.13;;;;;;;2.92;86.48;95059.81;5053973;28;20480;-87
2023/01/09 04:34:55;;;;;;;23.37;18.50;;;;;;;2.93;85.79;95060.63;5054494;28;20998;-87
2023/01/09 04:37:23;;;;;;;26.07;17.57;;;;;;;2.88;85.62;95063.44;5054218;28;20437;-87
2023/01/09 04:39:51;;;;;;;26.77;19.10;;;;;;;2.71;85.53;95061.75;5054688;28;20449;-86
2023/01/09 04:42:19;;;;;;;32.23;22.37;;;;;;;2.63;86.49;95063.06;5054071;28;20437;-87
2023/01/09 04:44:52;;;;;;;32.90;21.70;;;;;;;2.62;87.36;95062.22;5053657;28;20481;-87
2023/01/09 04:47:19;;;;;;;31.40;20.53;;;;;;;2.66;86.73;95060.31;5053803;28;20519;-87
2023/01/09 04:49:46;;;;;;;33.80;22.57;;;;;;;2.60;86.45;95052.81;5054496;28;20951;-87
2023/01/09 04:52:13;;;;;;;41.03;24.00;;;;;;;2.54;87.20;95061.75;5057899;28;20846;-87
2023/01/09 04:54:40;;;;;;;28.93;20.60;;;;;;;2.46;86.49;95054.38;5057957;28;20437;-87
2023/01/09 04:57:07;;;;;;;44.93;30.97;;;;;;;2.28;87.55;95047.53;5057593;28;20480;-87
2023/01/09 05:02:57;;;;;;;39.40;26.90;;;;;;;2.30;87.67;95040.53;5056552;28;20198;-87
2023/01/09 05:05:24;;;;;;;36.57;22.67;;;;;;;2.35;87.88;95042.91;5057516;28;20434;-87
2023/01/09 05:07:50;;;;;;;44.27;23.27;;;;;;;2.34;87.16;95042.06;5057811;28;20457;-87
2023/01/09 05:10:17;;;;;;;32.10;23.10;;;;;;;2.28;87.01;95039.75;5057476;28;20849;-87
2023/01/09 05:12:44;;;;;;;72.07;24.40;;;;;;;2.30;87.20;95044.88;5057003;28;20618;-87
2023/01/09 05:15:12;;;;;;;24.80;17.20;;;;;;;2.33;88.50;95044.75;5057116;28;20479;-88
2023/01/09 05:17:39;;;;;;;32.67;19.70;;;;;;;2.31;88.42;95047.38;5057385;28;20432;-87
2023/01/09 05:20:08;;;;;;;24.10;18.37;;;;;;;2.33;87.19;95047.31;5057384;28;20445;-87
2023/01/09 05:22:35;;;;;;;28.80;19.27;;;;;;;2.32;87.68;95054.25;5057312;28;20460;-87
2023/01/09 05:31:45;;;;;;;40.53;25.92;;;;;;;2.35;86.57;95063.63;5035782;28;20901;-87
2023/01/09 05:34:12;;;;;;;41.20;24.35;;;;;;;2.36;86.88;95055.78;5037377;28;20200;-87
2023/01/09 05:36:40;;;;;;;39.33;24.03;;;;;;;2.38;86.35;95053.09;5037037;28;20211;-87
2023/01/09 05:39:07;;;;;;;43.03;24.90;;;;;;;2.40;86.16;95052.09;5037038;28;20932;-86
2023/01/09 05:41:34;;;;;;;53.53;25.03;;;;;;;2.41;86.77;95052.94;5036836;28;20454;-88
2023/01/09 05:44:01;;;;;;;39.60;22.30;;;;;;;2.37;86.64;95049.69;5036936;28;20820;-87
2023/01/09 05:46:27;;;;;;;31.37;19.73;;;;;;;2.27;87.15;95047.59;5037530;28;20453;-87
2023/01/09 05:48:54;;;;;;;35.00;20.60;;;;;;;2.31;87.25;95049.97;5036057;28;20473;-87
2023/01/09 05:51:21;;;;;;;35.87;23.80;;;;;;;2.33;86.52;95048.16;5036392;28;20478;-87
2023/01/09 05:53:49;;;;;;;32.10;21.80;;;;;;;2.31;86.31;95049.97;5036119;28;20814;-88
2023/01/09 05:56:17;;;;;;;31.30;19.43;;;;;;;2.29;86.57;95043.19;5036274;28;20454;-87
2023/01/09 05:58:43;;;;;;;45.30;21.50;;;;;;;2.28;85.83;95039.75;5036342;28;20447;-86
2023/01/09 06:01:10;;;;;;;44.93;23.83;;;;;;;2.26;86.24;95033.00;5035780;28;20426;-87
2023/01/09 06:03:37;;;;;;;35.60;23.13;;;;;;;2.28;86.38;95038.91;5036434;28;20511;-87
2023/01/09 06:06:07;;;;;;;36.30;23.17;;;;;;;2.31;86.52;95036.19;5036306;28;20450;-87
2023/01/09 06:08:34;;;;;;;35.30;21.83;;;;;;;2.26;86.99;95039.00;5044522;28;20561;-86
2023/01/09 06:11:02;;;;;;;29.23;20.40;;;;;;;2.21;86.97;95035.81;5045326;28;20454;-87
2023/01/09 06:13:29;;;;;;;32.72;22.75;;;;;;;2.24;87.48;95040.00;5040634;28;20453;-87
2023/01/09 06:15:56;;;;;;;36.27;22.33;;;;;;;2.26;87.45;95027.81;5035934;28;20207;-88
2023/01/09 06:18:22;;;;;;;32.63;23.13;;;;;;;2.29;87.72;95036.25;5036613;28;20461;-88
2023/01/09 06:20:49;;;;;;;36.77;23.90;;;;;;;2.33;87.51;95034.38;5037558;28;20461;-87
2023/01/09 06:23:16;;;;;;;34.50;22.37;;;;;;;2.36;88.41;95034.22;5036140;28;20454;-87
2023/01/09 06:25:43;;;;;;;37.58;24.50;;;;;;;2.38;89.30;95033.22;5036179;28;20465;-87
2023/01/09 06:28:11;;;;;;;38.60;23.55;;;;;;;2.44;89.80;95029.47;5035867;28;20199;-86
2023/01/09 06:30:38;;;;;;;39.20;25.80;;;;;;;2.52;90.29;95037.69;5035462;28;20215;-87
2023/01/09 06:33:05;;;;;;;40.17;24.00;;;;;;;2.65;90.50;95041.34;5035644;28;20478;-86
2023/01/09 06:35:32;;;;;;;43.40;24.40;;;;;;;2.77;90.46;95032.09;5035914;28;20450;-89
2023/01/09 06:38:01;;;;;;;40.47;23.27;;;;;;;2.86;89.54;95022.97;5036076;28;20483;-86
2023/01/09 06:40:28;;;;;;;36.97;23.93;;;;;;;2.92;89.41;95023.53;5034989;28;20906;-88
2023/01/09 06:42:55;;;;;;;39.53;27.27;;;;;;;2.97;88.89;95021.53;5034841;28;20450;-84
2023/01/09 06:45:23;;;;;;;37.60;26.80;;;;;;;3.04;89.00;95028.03;5034337;28;20462;-85
2023/01/09 06:47:50;;;;;;;40.60;26.57;;;;;;;3.15;89.23;95024.03;5034269;28;20462;-86
2023/01/09 06:50:18;;;;;;;38.80;26.13;;;;;;;3.21;89.12;95028.91;5034332;28;20470;-86
2023/01/09 06:52:44;;;;;;;62.10;25.50;;;;;;;3.27;88.66;95024.22;5034164;28;20486;-87
2023/01/09 06:55:11;;;;;;;41.37;25.50;;;;;;;3.35;88.34;95024.63;5034579;28;20952;-88
2023/01/09 06:57:38;;;;;;;31.30;21.20;;;;;;;3.41;88.56;95026.03;5034630;28;20458;-86
2023/01/09 07:00:06;;;;;;;36.67;23.73;;;;;;;3.44;88.09;95020.69;5034421;28;20500;-85
2023/01/09 07:02:35;;;;;;;35.93;24.70;;;;;;;3.51;87.87;95021.22;5034434;28;20445;-87
2023/01/09 07:05:06;;;;;;;35.47;25.63;;;;;;;3.57;88.40;95016.50;5033870;28;20457;-85
2023/01/09 07:07:33;;;;;;;41.83;25.87;;;;;;;3.64;88.02;95014.41;5034785;28;20450;-87
2023/01/09 07:10:00;;;;;;;34.80;24.40;;;;;;;3.74;88.85;95018.97;5035322;28;20461;-87
2023/01/09 07:12:27;;;;;;;36.03;22.50;;;;;;;3.88;88.64;95004.41;5034054;28;20486;-87
2023/01/09 07:14:53;;;;;;;36.03;22.13;;;;;;;3.98;88.61;95006.38;5035080;28;20935;-87
2023/01/09 07:17:20;;;;;;;31.67;21.13;;;;;;;4.14;88.43;95015.91;5034752;28;20461;-86
2023/01/09 07:19:49;;;;;;;35.80;22.23;;;;;;;4.25;88.45;95014.34;5035054;28;20453;-87
2023/01/09 07:22:17;;;;;;;34.93;21.20;;;;;;;4.42;88.15;95009.94;5035207;28;20450;-87
2023/01/09 07:24:44;;;;;;;38.73;21.40;;;;;;;4.53;87.17;95007.53;5035184;28;20504;-88
2023/01/09 07:27:11;;;;;;;34.73;22.13;;;;;;;4.61;87.59;95013.09;5035163;28;20943;-86
2023/01/09 07:29:38;;;;;;;51.33;24.30;;;;;;;4.76;87.38;95026.97;5035196;28;20856;-86
2023/01/09 07:32:05;;;;;;;52.97;26.00;;;;;;;4.88;86.88;95029.66;5034568;28;20488;-86
2023/01/09 07:34:32;;;;;;;38.33;26.40;;;;;;;4.76;86.68;95016.56;5035180;28;20452;-89
2023/01/09 07:37:01;;;;;;;46.03;27.20;;;;;;;4.67;86.61;95015.38;5034817;28;20458;-86
2023/01/09 07:39:28;;;;;;;43.90;26.20;;;;;;;4.78;86.63;95018.13;5034808;28;20959;-87
2023/01/09 07:41:54;;;;;;;46.27;27.80;;;;;;;4.89;87.42;95015.72;5034806;28;20453;-88
2023/01/09 07:44:21;;;;;;;51.70;30.10;;;;;;;4.96;88.90;95011.84;5034607;28;20450;-88
2023/01/09 07:46:48;;;;;;;60.53;35.43;;;;;;;5.03;90.34;95021.84;5034819;28;20457;-89
2023/01/09 07:49:15;;;;;;;57.27;34.67;;;;;;;5.09;89.54;95016.28;5034710;28;20780;-88
2023/01/09 07:51:43;;;;;;;64.00;38.40;;;;;;;5.14;87.91;95027.22;5035186;28;20485;-87
2023/01/09 07:54:12;;;;;;;74.57;45.93;;;;;;;5.17;87.26;95019.22;5035374;28;20528;-85
2023/01/09 07:56:39;;;;;;;79.20;53.80;;;;;;;5.09;86.43;95035.31;5054210;28;20444;-87
2023/01/09 07:59:06;;;;;;;88.30;54.30;;;;;;;5.05;87.03;95036.44;5054593;28;20461;-88
2023/01/09 08:01:33;;;;;;;100.97;56.50;;;;;;;5.12;87.68;95053.34;5054014;28;20476;-89
2023/01/09 08:04:00;;;;;;;102.23;56.70;;;;;;;5.07;87.47;95036.34;5054078;28;20806;-89
2023/01/09 08:06:27;;;;;;;102.67;54.93;;;;;;;5.13;87.66;95043.75;5054376;28;20952;-88
2023/01/09 08:08:54;;;;;;;85.53;49.57;;;;;;;5.06;87.10;95047.69;5053944;28;20429;-89
2023/01/09 08:11:22;;;;;;;69.43;42.90;;;;;;;4.69;89.06;95044.69;5054845;28;20449;-86
2023/01/09 08:13:51;;;;;;;68.83;42.80;;;;;;;4.77;89.47;95042.47;5054458;28;21024;-85
2023/01/09 08:16:18;;;;;;;70.77;39.80;;;;;;;4.80;90.39;95042.28;5056123;28;20445;-85
2023/01/09 08:18:45;;;;;;;65.93;40.27;;;;;;;4.93;89.46;95053.63;5054804;28;20442;-85
2023/01/09 08:21:13;;;;;;;65.50;45.30;;;;;;;4.93;89.12;95048.44;5054031;28;20511;-85
2023/01/09 08:23:40;;;;;;;78.40;44.93;;;;;;;4.98;90.42;95035.97;5055354;28;20453;-84
2023/01/09 08:26:07;;;;;;;72.37;46.97;;;;;;;5.14;89.80;95040.22;5044946;28;20450;-86
2023/01/09 08:28:35;;;;;;;72.43;48.90;;;;;;;5.18;89.84;95046.91;5038837;28;20475;-87
2023/01/09 08:31:02;;;;;;;65.90;40.33;;;;;;;5.21;89.04;95036.34;5053487;28;20441;-86
2023/01/09 08:33:29;;;;;;;70.00;40.30;;;;;;;5.24;89.75;95041.38;5058372;28;20484;-87
2023/01/09 08:35:56;;;;;;;77.27;41.90;;;;;;;5.34;89.56;95041.63;5057995;28;20461;-85
2023/01/09 08:38:23;;;;;;;60.67;40.10;;;;;;;5.41;89.54;95037.69;5058106;28;20802;-85
2023/01/09 08:40:50;;;;;;;59.77;40.73;;;;;;;5.45;89.58;95034.81;5057948;28;20451;-85
2023/01/09 08:49:03;;;;;;;53.10;31.80;;;;;;;5.77;90.33;95031.94;4997473;28;20430;-88
2023/01/09 08:51:30;;;;;;;48.40;30.40;;;;;;;5.90;90.44;95031.09;4997506;28;20462;-88
2023/01/09 08:53:57;;;;;;;46.80;28.90;;;;;;;5.97;88.69;95008.09;4996846;28;20890;-87
2023/01/09 08:56:26;;;;;;;52.00;28.63;;;;;;;5.93;88.69;95017.03;4988099;28;20460;-87
2023/01/09 08:58:53;;;;;;;45.53;28.67;;;;;;;6.09;89.33;95025.56;4977591;28;20461;-86
2023/01/09 09:01:21;;;;;;;44.83;28.40;;;;;;;6.17;88.82;95015.47;4985258;28;20849;-86
2023/01/09 09:03:48;;;;;;;43.80;27.00;;;;;;;6.32;89.05;95010.16;4977387;28;20443;-85
2023/01/09 09:06:15;;;;;;;41.70;27.80;;;;;;;6.34;87.33;95003.91;4980490;28;20448;-88
2023/01/09 09:08:42;;;;;;;42.60;24.03;;;;;;;6.36;87.50;95003.78;4996070;28;20447;-87
2023/01/09 09:11:09;;;;;;;47.70;26.63;;;;;;;6.34;87.65;95003.91;4995398;28;20464;-88
2023/01/09 09:13:36;;;;;;;52.07;33.50;;;;;;;6.35;87.46;94996.91;4996081;28;20604;-89
2023/01/09 09:16:02;;;;;;;46.03;29.63;;;;;;;6.40;87.84;95000.91;4996535;28;20507;-88
2023/01/09 09:18:31;;;;;;;56.60;33.57;;;;;;;6.44;87.45;94998.94;4983064;28;20467;-89
2023/01/09 09:20:58;;;;;;;57.33;30.60;;;;;;;6.37;88.14;94982.03;5002025;28;20456;-88
2023/01/09 09:23:25;;;;;;;50.93;31.97;;;;;;;6.54;88.67;94976.50;5057829;28;20484;-88
2023/01/09 09:25:52;;;;;;;44.13;27.83;;;;;;;6.61;87.72;94982.97;5057681;28;20454;-89
2023/01/09 09:28:19;;;;;;;53.70;31.70;;;;;;;6.65;88.67;94986.19;5057954;28;20974;-89
2023/01/09 09:30:45;;;;;;;46.57;30.23;;;;;;;6.60;88.67;94970.03;5057259;28;20452;-87
2023/01/09 09:33:12;;;;;;;40.77;26.23;;;;;;;6.36;89.31;94968.19;5057020;28;20478;-88
2023/01/09 09:35:41;;;;;;;34.43;24.57;;;;;;;6.33;89.07;94957.09;5056851;28;20457;-88
2023/01/09 09:38:08;;;;;;;44.90;28.57;;;;;;;6.44;89.81;94952.03;5057421;28;20454;-88
2023/01/09 09:40:49;;;;;;;45.90;28.50;;;;;;;6.44;89.47;94942.44;5057136;28;20449;-89
2023/01/09 09:46:31;;;;;;;42.03;27.30;;;;;;;6.48;89.44;94930.03;5057661;28;20798;-89
2023/01/09 09:49:03;;;;;;;41.83;27.10;;;;;;;6.41;90.24;94923.56;5058137;28;20448;-89
2023/01/09 09:52:02;;;;;;;45.87;26.23;;;;;;;6.65;89.47;94902.78;5057897;28;20461;-88
2023/01/09 09:54:36;;;;;;;44.77;29.17;;;;;;;6.75;89.54;94904.66;5057568;28;20480;-88
2023/01/09 09:57:05;;;;;;;48.30;30.83;;;;;;;6.89;89.03;94901.06;5056798;28;21043;-88
2023/01/09 09:59:35;;;;;;;46.97;29.13;;;;;;;7.14;88.71;94892.34;5056807;28;20490;-88
2023/01/09 10:02:13;;;;;;;46.77;32.00;;;;;;;7.36;88.16;94895.09;5056401;28;20447;-87
2023/01/09 10:04:46;;;;;;;43.40;29.43;;;;;;;7.42;87.12;94871.16;5056762;28;20933;-88
2023/01/09 10:07:20;;;;;;;41.30;27.90;;;;;;;7.47;86.21;94869.03;5056291;28;20454;-88
2023/01/09 10:09:49;;;;;;;42.23;26.67;;;;;;;7.47;86.24;94857.75;5056908;28;20549;-88
2023/01/09 10:12:28;;;;;;;37.03;24.40;;;;;;;7.43;85.49;94849.31;5055976;28;21019;-88
2023/01/09 10:14:57;;;;;;;34.30;20.83;;;;;;;7.46;84.78;94822.97;5056426;28;20449;-88
2023/01/09 10:17:55;;;;;;;35.93;20.73;;;;;;;7.56;84.50;94825.75;5056253;28;20489;-88
2023/01/09 10:20:52;;;;;;;32.97;20.27;;;;;;;7.54;84.07;94832.06;5014561;28;20471;-88
2023/01/09 10:23:44;;;;;;;30.77;19.73;;;;;;;7.55;84.47;94825.88;5011515;28;20478;-88
2023/01/09 10:26:19;;;;;;;35.43;18.63;;;;;;;7.60;83.45;94802.88;5014368;28;20452;-88
2023/01/09 10:29:04;;;;;;;30.80;16.43;;;;;;;7.57;83.05;94800.50;5014222;28;20457;-88
2023/01/09 10:31:40;;;;;;;35.27;19.87;;;;;;;7.51;83.81;94790.47;5014488;28;20495;-87
2023/01/09 10:34:19;;;;;;;30.93;19.00;;;;;;;7.60;84.75;94795.03;5013975;28;20526;-88
2023/01/09 10:37:04;;;;;;;26.10;18.90;;;;;;;7.63;83.14;94792.19;5014318;28;20463;-87
2023/01/09 10:39:38;;;;;;;26.07;17.33;;;;;;;7.81;82.93;94785.59;4966598;28;20451;-88
2023/01/09 10:42:14;;;;;;;23.03;15.30;;;;;;;7.98;82.66;94782.50;5013924;28;20970;-88
2023/01/09 10:44:49;;;;;;;25.83;15.30;;;;;;;8.13;81.04;94779.69;5017255;28;20448;-87
2023/01/09 10:47:18;;;;;;;22.30;17.33;;;;;;;8.04;81.37;94779.44;5028836;28;20474;-85
2023/01/09 10:49:47;;;;;;;24.97;17.20;;;;;;;8.20;81.63;94781.72;5029092;28;20461;-88
2023/01/09 10:52:17;;;;;;;27.83;15.33;;;;;;;8.19;79.87;94771.38;5014161;28;20457;-87
2023/01/09 10:54:52;;;;;;;24.90;15.87;;;;;;;8.25;80.08;94776.13;5013520;28;20532;-87
2023/01/09 10:57:33;;;;;;;26.93;15.03;;;;;;;8.38;80.00;94779.47;5042805;28;21037;-88
2023/01/09 11:00:00;;;;;;;24.33;14.70;;;;;;;8.29;79.14;94767.09;5055356;28;20448;-88
2023/01/09 11:02:30;;;;;;;27.13;16.77;;;;;;;8.38;78.67;94774.22;5055615;28;20513;-89
2023/01/09 11:04:57;;;;;;;20.47;14.57;;;;;;;8.21;79.07;94764.25;5055958;28;20447;-89
2023/01/09 11:07:29;;;;;;;27.03;14.30;;;;;;;8.06;79.76;94748.78;5055408;28;20458;-88
2023/01/09 11:09:59;;;;;;;22.10;13.30;;;;;;;8.11;79.62;94745.00;5055444;28;20434;-89
2023/01/09 11:12:28;;;;;;;28.80;14.73;;;;;;;8.01;80.42;94740.47;5054700;28;20997;-87
2023/01/09 11:14:55;;;;;;;23.37;15.70;;;;;;;7.95;81.72;94727.88;5054750;28;20437;-88
2023/01/09 11:17:26;;;;;;;23.53;14.93;;;;;;;8.04;81.38;94724.56;5054868;28;20458;-88
2023/01/09 11:20:04;;;;;;;26.67;14.97;;;;;;;8.14;80.67;94729.91;5055002;28;20447;-88
2023/01/09 11:22:43;;;;;;;27.20;15.87;;;;;;;8.12;81.11;94718.75;5054844;28;20528;-88
2023/01/09 11:25:14;;;;;;;26.67;15.70;;;;;;;8.27;80.64;94728.00;5054507;28;20900;-87
2023/01/09 11:27:41;;;;;;;23.93;16.73;;;;;;;8.39;80.04;94710.56;5054809;28;20466;-88
2023/01/09 11:30:22;;;;;;;25.03;15.67;;;;;;;8.48;79.62;94712.44;5054522;28;20458;-88
2023/01/09 11:32:50;;;;;;;20.27;13.90;;;;;;;8.36;78.90;94708.16;5054627;28;20479;-88
2023/01/09 11:35:30;;;;;;;22.20;14.70;;;;;;;8.30;78.41;94713.84;5054672;28;20525;-88
2023/01/09 11:38:03;;;;;;;28.07;15.13;;;;;;;8.35;78.74;94714.34;5054713;28;20495;-88
2023/01/09 11:40:37;;;;;;;23.50;16.67;;;;;;;8.38;78.36;94701.88;5054052;28;20501;-87
2023/01/09 11:43:16;;;;;;;22.20;14.50;;;;;;;8.36;78.54;94700.31;5054584;28;20458;-88
2023/01/09 11:45:47;;;;;;;28.60;15.03;;;;;;;8.45;79.35;94712.69;5054455;28;20443;-88
2023/01/09 11:48:21;;;;;;;20.23;15.37;;;;;;;8.44;77.55;94703.19;5054120;28;20949;-87
2023/01/09 11:50:54;;;;;;;25.77;16.53;;;;;;;8.55;77.55;94703.16;5054144;28;20973;-87
2023/01/09 11:53:22;;;;;;;26.47;16.40;;;;;;;8.55;77.57;94689.25;5054331;28;20479;-88
2023/01/09 11:55:57;;;;;;;20.50;14.60;;;;;;;8.62;77.25;94700.88;5054229;28;20954;-88
2023/01/09 11:58:25;;;;;;;25.00;15.87;;;;;;;8.74;77.44;94706.91;5053745;28;20950;-87
2023/01/09 12:01:00;;;;;;;21.10;15.13;;;;;;;8.88;77.60;94693.53;5054259;28;20550;-86
2023/01/09 12:03:44;;;;;;;29.10;17.70;;;;;;;8.93;76.18;94692.19;5054726;28;21014;-88
2023/01/09 12:06:18;;;;;;;23.13;16.60;;;;;;;8.97;76.34;94693.63;5054188;28;20489;-88
2023/01/09 12:08:55;;;;;;;22.03;13.90;;;;;;;9.04;76.10;94688.72;5054232;28;20455;-88